Time;durP1;ratioP1;P1;durP2;ratioP2;P2;SDS_P1;SDS_P2;PMS_P1;PMS_P2;Temp;Humidity;BMP_temperature;BMP_pressure;BME280_temperature;BME280_humidity;BME280_pressure;Samples;Min_cycle;Max_cycle;Signal;HPM_P1;HPM_P2
2022/03/30 00:01:09;;;;;;;;;44.75;33.75;;;;;19.10;50.84;100164.84;5044926;28;61910;-77
2022/03/30 00:03:35;;;;;;;;;41.00;33.50;;;;;19.11;50.58;100160.38;5044156;28;61839;-76
2022/03/30 00:06:00;;;;;;;;;39.00;30.25;;;;;19.09;50.81;100160.41;5044546;28;61704;-77
2022/03/30 00:08:26;;;;;;;;;36.00;32.25;;;;;19.09;50.73;100157.75;5044677;28;61808;-77
2022/03/30 00:10:52;;;;;;;;;41.50;33.25;;;;;19.08;50.87;100150.63;5044714;28;61964;-77
2022/03/30 00:13:17;;;;;;;;;40.25;31.75;;;;;19.08;50.79;100149.75;5044141;28;61936;-76
2022/03/30 00:15:43;;;;;;;;;41.25;34.75;;;;;19.08;50.50;100155.97;5044063;28;62072;-77
2022/03/30 00:18:08;;;;;;;;;41.75;32.25;;;;;19.06;50.75;100147.09;5044790;28;61833;-77
2022/03/30 00:20:34;;;;;;;;;36.50;32.50;;;;;19.06;50.75;100147.09;5041795;28;61814;-77
2022/03/30 00:22:59;;;;;;;;;41.25;35.00;;;;;19.05;50.74;100150.66;5023713;28;62536;-77
2022/03/30 00:25:25;;;;;;;;;43.75;36.50;;;;;19.04;50.89;100143.56;5023343;28;61910;-77
2022/03/30 00:27:50;;;;;;;;;48.00;37.25;;;;;19.05;50.88;100147.13;5024659;28;61961;-77
2022/03/30 00:30:18;;;;;;;;;31.00;30.00;;;;;19.06;50.86;100140.91;5023314;28;62070;-77
2022/03/30 00:32:44;;;;;;;;;50.00;35.25;;;;;19.05;50.51;100144.47;5022745;28;63883;-77
2022/03/30 00:35:11;;;;;;;;;57.75;45.50;;;;;19.02;50.68;100140.00;5024384;28;62091;-77
2022/03/30 00:37:37;;;;;;;;;61.00;48.75;;;;;19.03;50.64;100141.78;5024191;28;61806;-76
2022/03/30 00:40:05;;;;;;;;;61.50;48.50;;;;;19.02;50.56;100137.34;5023175;28;62045;-77
2022/03/30 00:42:31;;;;;;;;;55.75;41.75;;;;;19.03;50.91;100140.91;5023943;28;62928;-77
2022/03/30 00:44:57;;;;;;;;;62.50;46.50;;;;;19.02;50.56;100137.34;5022623;28;61947;-76
2022/03/30 00:47:24;;;;;;;;;55.25;42.25;;;;;19.04;50.89;100126.72;5023064;28;62334;-77
2022/03/30 00:49:50;;;;;;;;;57.25;43.75;;;;;19.04;51.01;100129.38;5024193;28;62064;-77
2022/03/30 00:52:16;;;;;;;;;56.75;45.25;;;;;19.05;50.78;100123.19;5033514;28;61932;-77
2022/03/30 00:54:45;;;;;;;;;62.00;46.75;;;;;19.03;50.92;100117.84;5042503;28;62138;-77
2022/03/30 00:57:12;;;;;;;;;58.00;49.00;;;;;19.00;50.82;100121.41;5059461;28;61809;-77
2022/03/30 00:59:39;;;;;;;;;66.75;50.00;;;;;18.97;50.92;100121.38;5044007;28;61796;-77
2022/03/30 01:02:05;;;;;;;;;65.50;47.25;;;;;18.92;51.12;100114.31;5043173;28;64106;-77
2022/03/30 01:04:33;;;;;;;;;57.00;46.75;;;;;18.91;51.33;100109.88;5059508;28;61917;-77
2022/03/30 01:06:59;;;;;;;;;71.00;51.25;;;;;18.93;50.96;100108.09;5032425;28;62121;-77
2022/03/30 01:09:25;;;;;;;;;68.25;48.25;;;;;18.90;51.49;100106.34;5039278;28;61786;-77
2022/03/30 01:11:55;;;;;;;;;66.75;48.75;;;;;18.90;50.96;100100.13;5023238;28;61860;-77
2022/03/30 01:14:22;;;;;;;;;67.25;50.50;;;;;18.91;51.02;100096.56;5023541;28;61717;-77
2022/03/30 01:16:47;;;;;;;;;72.00;51.00;;;;;18.90;51.09;100092.16;5039421;28;61851;-77
2022/03/30 01:19:14;;;;;;;;;63.25;47.25;;;;;18.87;50.95;100090.38;5023660;28;62120;-77
2022/03/30 01:21:41;;;;;;;;;69.25;51.50;;;;;18.86;50.93;100091.25;5038201;28;63917;-77
2022/03/30 01:24:11;;;;;;;;;61.00;49.00;;;;;18.84;51.46;100085.06;5039098;28;61973;-77
2022/03/30 01:26:37;;;;;;;;;60.25;46.25;;;;;18.82;51.48;100083.28;5023861;28;61811;-77
2022/03/30 01:34:37;;;;;;;;;52.00;42.75;;;;;18.77;51.68;100080.59;5023599;28;61940;-77
2022/03/30 01:37:04;;;;;;;;;62.00;47.75;;;;;18.76;51.42;100076.16;5038695;28;61989;-77
2022/03/30 01:39:29;;;;;;;;;56.00;46.25;;;;;18.73;52.02;100074.41;5023623;28;61836;-77
2022/03/30 01:41:55;;;;;;;;;60.00;45.25;;;;;18.73;51.42;100074.41;5037914;28;63692;-77
2022/03/30 01:44:21;;;;;;;;;64.00;46.50;;;;;18.71;51.65;100065.53;5022875;28;61916;-77
2022/03/30 01:46:46;;;;;;;;;55.50;44.00;;;;;18.70;51.57;100069.09;5023706;28;61920;-77
2022/03/30 01:49:12;;;;;;;;;62.25;46.00;;;;;18.70;51.80;100068.19;5023122;28;61944;-76
2022/03/30 01:51:37;;;;;;;;;60.75;45.75;;;;;18.70;51.68;100063.78;5027461;28;61750;-77
2022/03/30 01:54:03;;;;;;;;;63.00;48.50;;;;;18.66;51.93;100056.69;5043017;28;61772;-77
2022/03/30 01:56:28;;;;;;;;;63.00;44.75;;;;;18.64;51.93;100060.22;5043070;28;61845;-77
2022/03/30 01:58:53;;;;;;;;;61.00;46.50;;;;;18.59;52.17;100058.47;5041837;28;62036;-77
2022/03/30 02:01:20;;;;;;;;;68.00;47.75;;;;;18.54;52.20;100052.25;5042434;28;62021;-76
2022/03/30 02:03:46;;;;;;;;;62.50;50.00;;;;;18.52;52.23;100055.78;5041400;28;62005;-77
2022/03/30 02:06:12;;;;;;;;;63.25;48.00;;;;;18.49;52.37;100047.84;5041701;28;61993;-77
2022/03/30 02:08:38;;;;;;;;;57.50;42.50;;;;;18.47;52.56;100042.50;5041660;28;61840;-77
2022/03/30 02:11:04;;;;;;;;;64.50;47.50;;;;;18.47;52.39;100038.97;5042291;28;62904;-77
2022/03/30 02:13:29;;;;;;;;;59.25;47.50;;;;;18.45;52.40;100036.31;5058079;28;61964;-77
2022/03/30 02:15:55;;;;;;;;;65.00;48.75;;;;;18.42;52.54;100036.28;5042840;28;61950;-77
2022/03/30 02:18:20;;;;;;;;;61.75;47.50;;;;;18.40;52.51;100035.41;5042711;28;61766;-77
2022/03/30 02:20:46;;;;;;;;;62.00;48.50;;;;;18.36;52.47;100031.00;5041738;28;62164;-77
2022/03/30 02:23:11;;;;;;;;;67.25;48.00;;;;;18.34;52.62;100028.34;5058275;28;61890;-77
2022/03/30 02:25:37;;;;;;;;;55.50;44.00;;;;;18.33;52.89;100025.66;5042554;28;62192;-77
2022/03/30 02:28:03;;;;;;;;;60.50;47.50;;;;;18.28;52.79;100020.34;5043133;28;61855;-77
2022/03/30 02:30:29;;;;;;;;;63.25;47.75;;;;;18.27;52.78;100020.34;5057327;28;65011;-77
2022/03/30 02:32:55;;;;;;;;;57.50;45.50;;;;;18.24;52.97;100031.84;5042563;28;62042;-77
2022/03/30 02:35:21;;;;;;;;;58.50;45.50;;;;;18.22;52.76;100020.34;5042647;28;61792;-77
2022/03/30 02:37:46;;;;;;;;;66.00;50.00;;;;;18.18;52.87;100019.44;5057869;28;62173;-77
2022/03/30 02:40:12;;;;;;;;;56.75;45.00;;;;;18.17;53.06;100019.47;5057490;28;63864;-77
2022/03/30 02:42:37;;;;;;;;;62.75;48.00;;;;;18.16;53.09;100017.69;5042415;28;61771;-77
2022/03/30 02:45:04;;;;;;;;;66.25;48.00;;;;;18.14;53.17;100014.13;5042134;28;61688;-77
2022/03/30 02:50:13;;;;;;;;;66.25;48.50;;;;;18.12;52.95;100008.84;5041417;28;61743;-77
2022/03/30 02:52:39;;;;;;;;;71.25;50.75;;;;;18.12;53.02;100011.50;5041130;28;62043;-77
2022/03/30 02:55:06;;;;;;;;;55.50;44.25;;;;;18.15;52.88;100008.84;5042326;28;61959;-77
2022/03/30 02:57:31;;;;;;;;;68.00;49.25;;;;;18.09;53.13;100007.94;5042489;28;61907;-76
2022/03/30 02:59:57;;;;;;;;;66.75;49.25;;;;;18.08;53.25;100006.16;5041157;28;62979;-77
2022/03/30 03:02:22;;;;;;;;;64.50;47.75;;;;;18.07;53.50;99997.31;5040517;28;61862;-77
2022/03/30 03:04:47;;;;;;;;;60.25;45.00;;;;;18.07;53.60;100002.63;5042087;28;61865;-77
2022/03/30 03:07:14;;;;;;;;;67.00;50.75;;;;;18.11;53.73;100001.75;5044237;28;62064;-77
2022/03/30 03:09:40;;;;;;;;;62.50;47.25;;;;;18.11;53.58;100003.53;5021594;28;61774;-77
2022/03/30 03:12:05;;;;;;;;;63.50;47.50;;;;;18.10;53.58;100000.00;5022001;28;62363;-77
2022/03/30 03:14:31;;;;;;;;;57.50;45.25;;;;;18.10;53.78;100001.72;5021640;28;61921;-77
2022/03/30 03:16:56;;;;;;;;;64.50;51.50;;;;;18.11;53.58;99999.09;5022088;28;61989;-77
2022/03/30 03:19:23;;;;;;;;;59.50;44.00;;;;;18.12;53.77;100000.88;5021186;28;62054;-77
2022/03/30 03:21:48;;;;;;;;;69.00;50.75;;;;;18.15;53.57;99994.66;5037034;28;62153;-77
2022/03/30 03:24:14;;;;;;;;;64.00;51.50;;;;;18.13;53.46;99992.00;5022189;28;61947;-77
2022/03/30 03:26:39;;;;;;;;;56.25;44.00;;;;;18.13;53.79;99993.78;5022184;28;61763;-77
2022/03/30 03:29:05;;;;;;;;;66.00;47.25;;;;;18.11;53.47;99990.25;5019199;28;65190;-76
2022/03/30 03:31:30;;;;;;;;;68.50;49.00;;;;;18.14;53.57;99998.19;5020129;28;61888;-77
2022/03/30 03:33:56;;;;;;;;;58.25;43.25;;;;;18.13;53.51;99986.69;5021922;28;62129;-77
2022/03/30 03:36:21;;;;;;;;;64.00;47.50;;;;;18.13;53.68;99992.00;5022106;28;61963;-77
2022/03/30 03:38:46;;;;;;;;;62.50;47.50;;;;;18.14;53.52;99987.56;5021128;28;62510;-76
2022/03/30 03:41:12;;;;;;;;;67.00;52.25;;;;;18.13;53.62;99984.03;5020188;28;61931;-77
2022/03/30 03:43:38;;;;;;;;;62.75;47.75;;;;;18.09;53.78;99987.56;5021749;28;61886;-77
2022/03/30 05:39:26;;;;;;;;;77.00;56.00;;;;;18.06;55.03;99937.13;4991379;22;58876;31
2022/03/30 05:41:52;;;;;;;;;73.00;52.00;;;;;18.05;55.20;99935.34;4940582;28;63350;-76
2022/03/30 05:44:18;;;;;;;;;62.50;48.75;;;;;18.05;55.33;99942.44;4959324;28;63864;-79
2022/03/30 05:46:44;;;;;;;;;71.50;54.00;;;;;18.07;55.78;99938.88;4963595;28;61797;-78
2022/03/30 05:49:09;;;;;;;;;67.25;51.50;;;;;18.09;55.78;99947.72;4961979;28;61830;-77
2022/03/30 05:51:35;;;;;;;;;75.50;56.00;;;;;18.11;55.57;99940.66;4964650;28;61968;-77
2022/03/30 05:54:00;;;;;;;;;68.50;54.50;;;;;18.08;55.95;99939.75;4963541;28;61813;-78
2022/03/30 05:59:11;;;;;;;;;75.25;53.75;;;;;18.12;56.09;99947.75;4963535;28;62146;-77
2022/03/30 06:01:37;;;;;;;;;69.00;52.50;;;;;18.11;55.98;99945.97;4945981;28;61855;-77
2022/03/30 06:04:03;;;;;;;;;72.00;55.50;;;;;18.11;56.27;99950.41;4962863;28;61943;-77
2022/03/30 06:06:28;;;;;;;;;72.00;50.00;;;;;18.13;56.28;99946.84;4963544;28;62125;-77
2022/03/30 06:08:54;;;;;;;;;65.00;50.25;;;;;18.16;56.27;99953.94;4961854;28;61761;-77
2022/03/30 06:11:19;;;;;;;;;75.25;55.50;;;;;18.16;56.21;99956.59;4962854;28;61712;-77
2022/03/30 06:13:44;;;;;;;;;70.25;52.50;;;;;18.17;55.92;99958.38;4962880;28;62705;-77
2022/03/30 06:16:10;;;;;;;;;71.75;55.50;;;;;18.14;55.57;99961.00;4977904;28;61918;-77
2022/03/30 06:18:36;;;;;;;;;67.50;52.00;;;;;18.10;55.98;99964.53;4963548;28;62111;-77
2022/03/30 06:21:02;;;;;;;;;71.75;54.00;;;;;18.07;55.84;99960.13;4963090;28;61770;-77
2022/03/30 06:23:27;;;;;;;;;70.75;54.00;;;;;18.04;55.59;99960.13;4962460;28;61921;-77
2022/03/30 06:25:54;;;;;;;;;80.25;59.75;;;;;18.06;56.04;99969.00;4963260;28;61971;-78
2022/03/30 06:28:23;;;;;;;;;78.75;56.75;;;;;18.04;56.02;99954.81;4962861;28;62229;-78
2022/03/30 06:30:49;;;;;;;;;64.00;46.00;;;;;18.06;56.22;99965.44;4963594;28;61923;-78
2022/03/30 06:33:14;;;;;;;;;68.25;52.00;;;;;18.09;56.19;99961.00;4963119;28;61832;-78
2022/03/30 06:35:40;;;;;;;;;68.75;49.00;;;;;18.07;56.03;99962.78;4963681;28;61750;-78
2022/03/30 06:38:06;;;;;;;;;75.75;55.25;;;;;18.10;56.05;99972.50;4977685;28;61761;-78
2022/03/30 06:40:33;;;;;;;;;69.50;52.50;;;;;18.09;55.96;99965.44;4962768;28;61859;-78
2022/03/30 06:43:00;;;;;;;;;74.75;55.00;;;;;18.08;55.62;99958.34;4977594;28;63622;-78
2022/03/30 06:45:26;;;;;;;;;78.50;56.75;;;;;18.09;55.55;99968.97;4962275;28;62302;-77
2022/03/30 06:47:52;;;;;;;;;73.25;56.75;;;;;18.09;55.72;99968.09;4962420;28;61786;-78
2022/03/30 06:50:19;;;;;;;;;73.25;55.25;;;;;18.08;55.79;99972.53;4960288;28;62139;-78
2022/03/30 06:52:45;;;;;;;;;66.00;49.50;;;;;18.08;55.86;99966.31;4959361;28;62653;-78
2022/03/30 06:55:12;;;;;;;;;73.50;52.50;;;;;18.10;55.54;99970.78;4958095;28;62134;-78
2022/03/30 06:57:38;;;;;;;;;79.50;57.25;;;;;18.09;55.82;99971.63;4961326;28;61951;-79
2022/03/30 07:00:05;;;;;;;;;74.00;57.00;;;;;18.08;56.05;99969.88;4962232;28;61862;-78
2022/03/30 07:02:31;;;;;;;;;67.75;50.00;;;;;18.10;55.96;99973.44;4962323;28;61846;-79
2022/03/30 07:04:57;;;;;;;;;66.50;50.75;;;;;18.10;56.00;99970.78;4962823;28;61816;-79
2022/03/30 07:10:19;;;;;;;;;78.00;56.00;;;;;18.13;55.89;99975.19;4961368;28;61888;-78
2022/03/30 07:12:50;;;;;;;;;72.00;53.00;;;;;18.15;55.83;99976.97;4960701;28;61853;-78
2022/03/30 07:15:18;;;;;;;;;70.50;51.50;;;;;18.16;56.08;99975.19;4960827;28;61979;-78
2022/03/30 07:17:51;;;;;;;;;72.50;56.00;;;;;18.22;55.53;99977.84;4961406;28;61845;-78
2022/03/30 07:20:18;;;;;;;;;75.75;54.00;;;;;18.22;55.82;99974.31;4961119;28;61863;-78
2022/03/30 07:22:44;;;;;;;;;71.00;53.75;;;;;18.25;55.71;99963.66;4960950;28;61852;-77
2022/03/30 07:25:13;;;;;;;;;73.25;55.50;;;;;18.28;55.81;99966.34;4961590;28;61823;-77
2022/03/30 07:27:41;;;;;;;;;66.00;50.00;;;;;18.31;55.67;99969.84;4961336;28;61987;-77
2022/03/30 07:30:07;;;;;;;;;79.75;56.50;;;;;18.31;55.72;99963.66;4943251;28;62098;-77
2022/03/30 07:32:34;;;;;;;;;64.25;47.75;;;;;18.29;55.64;99968.97;4960371;28;62401;-77
2022/03/30 07:35:00;;;;;;;;;78.75;54.50;;;;;18.25;55.85;99972.50;4960906;28;61709;-77
2022/03/30 07:37:25;;;;;;;;;71.25;54.00;;;;;18.26;56.15;99966.34;4959829;28;62009;-77
2022/03/30 07:39:51;;;;;;;;;77.00;55.25;;;;;18.27;56.20;99965.44;4978101;28;61789;-78
2022/03/30 07:42:16;;;;;;;;;75.00;56.75;;;;;18.33;56.02;99967.22;4945858;28;63671;-77
2022/03/30 07:44:42;;;;;;;;;67.50;54.50;;;;;18.35;55.86;99968.09;4962787;28;61833;-77
2022/03/30 07:47:07;;;;;;;;;69.50;54.00;;;;;18.38;56.21;99970.75;4964133;28;62071;-77
2022/03/30 07:49:33;;;;;;;;;70.25;53.25;;;;;18.37;56.10;99968.97;4962962;28;62342;-77
2022/03/30 07:52:03;;;;;;;;;69.25;53.50;;;;;18.37;56.16;99968.97;4962168;28;64743;-77
2022/03/30 07:54:28;;;;;;;;;77.75;59.50;;;;;18.35;56.47;99971.63;4964373;28;61785;-77
2022/03/30 07:56:54;;;;;;;;;68.50;54.50;;;;;18.37;56.80;99964.53;4968122;28;62022;-77
2022/03/30 07:59:20;;;;;;;;;70.25;52.00;;;;;18.38;56.79;99969.00;4963016;28;62127;-76
2022/03/30 08:01:46;;;;;;;;;72.00;52.25;;;;;18.37;56.70;99964.53;4961957;28;63319;-77
2022/03/30 08:04:11;;;;;;;;;70.75;55.50;;;;;18.37;56.89;99968.97;4964086;28;62074;-76
2022/03/30 08:06:37;;;;;;;;;69.00;57.25;;;;;18.38;57.32;99957.44;4946526;28;61872;-76
2022/03/30 08:09:03;;;;;;;;;71.25;53.50;;;;;18.39;57.27;99962.78;4961935;28;62085;-76
2022/03/30 08:11:29;;;;;;;;;78.25;56.00;;;;;18.41;57.38;99956.59;4963195;28;62100;-76
2022/03/30 08:13:56;;;;;;;;;71.00;53.25;;;;;18.39;57.11;99962.78;4962964;28;61947;-77
2022/03/30 08:16:22;;;;;;;;;75.75;57.75;;;;;18.34;57.45;99958.38;4979115;28;61795;-76
2022/03/30 08:18:51;;;;;;;;;72.25;54.25;;;;;18.33;57.48;99960.13;4963386;28;62824;-77
2022/03/30 08:24:02;;;;;;;;;80.50;55.50;;;;;18.27;56.99;99957.47;4963985;28;61961;-76
2022/03/30 08:26:28;;;;;;;;;77.75;56.00;;;;;18.29;57.18;99966.31;4963937;28;61988;-76
2022/03/30 08:28:54;;;;;;;;;77.75;55.25;;;;;18.32;57.22;99965.47;4965340;28;61794;-76
2022/03/30 08:31:20;;;;;;;;;68.00;52.50;;;;;18.30;57.15;99959.25;4964766;28;62007;-76
2022/03/30 08:33:45;;;;;;;;;72.25;53.00;;;;;18.33;57.02;99964.56;4965055;28;61991;-76
2022/03/30 08:36:11;;;;;;;;;73.50;56.50;;;;;18.37;56.82;99961.88;4965424;28;62323;-76
2022/03/30 08:38:37;;;;;;;;;71.75;55.25;;;;;18.34;56.64;99966.34;4947424;28;62001;-76
2022/03/30 08:41:06;;;;;;;;;71.50;54.50;;;;;18.39;56.63;99959.25;4969518;28;62941;-76
2022/03/30 08:43:36;;;;;;;;;74.75;58.25;;;;;18.37;56.79;99961.00;4965168;28;61780;-76
2022/03/30 08:46:03;;;;;;;;;67.25;52.25;;;;;18.41;56.70;99959.25;4965062;28;61869;-76
2022/03/30 08:48:30;;;;;;;;;75.25;56.50;;;;;18.47;56.49;99959.25;4963740;28;61900;-76
2022/03/30 08:50:58;;;;;;;;;76.50;59.50;;;;;18.56;56.61;99960.09;4962065;28;61864;-76
2022/03/30 08:53:26;;;;;;;;;76.75;55.50;;;;;18.67;56.27;99965.41;4964257;28;61707;-77
2022/03/30 08:55:52;;;;;;;;;73.75;53.75;;;;;18.78;56.16;99954.78;4964930;28;61961;-77
2022/03/30 08:58:17;;;;;;;;;71.25;55.00;;;;;18.91;55.90;99960.94;4965028;28;62166;-76
2022/03/30 09:00:43;;;;;;;;;80.00;62.50;;;;;19.03;55.52;99960.03;4960749;28;64025;-73
2022/03/30 09:03:09;;;;;;;;;76.25;59.25;;;;;19.14;55.46;99960.88;4963358;28;61941;-76
2022/03/30 09:05:37;;;;;;;;;69.50;52.50;;;;;19.20;54.97;99951.09;4962232;28;61963;-76
2022/03/30 09:08:20;;;;;;;;;77.00;59.75;;;;;19.24;54.82;99953.72;4962719;28;61941;-76
2022/03/30 09:10:48;;;;;;;;;65.00;52.25;;;;;19.34;54.76;99951.00;4976985;28;63394;-76
2022/03/30 09:13:17;;;;;;;;;78.50;55.75;;;;;19.45;54.64;99955.41;4962662;28;62043;-76
2022/03/30 09:15:44;;;;;;;;;68.00;52.00;;;;;19.59;54.56;99954.44;4977775;28;61834;-76
2022/03/30 09:18:11;;;;;;;;;75.75;55.25;;;;;19.74;53.92;99957.94;4961689;28;61873;-76
2022/03/30 09:20:41;;;;;;;;;70.50;54.50;;;;;19.91;53.40;99955.16;4962402;28;62844;-76
2022/03/30 09:23:08;;;;;;;;;70.00;53.50;;;;;20.02;52.47;99962.16;4945166;28;62064;-76
2022/03/30 09:25:34;;;;;;;;;73.00;52.00;;;;;20.09;52.76;99963.00;4962820;28;61800;-76
2022/03/30 09:28:01;;;;;;;;;75.75;53.00;;;;;20.17;52.90;99958.50;4963076;28;61852;-76
2022/03/30 09:30:31;;;;;;;;;77.00;57.75;;;;;20.28;52.52;99963.75;4962062;28;61934;-77
2022/03/30 09:32:58;;;;;;;;;69.25;52.75;;;;;20.31;51.41;99958.41;4946176;28;61849;-77
2022/03/30 09:35:30;;;;;;;;;67.75;53.50;;;;;20.37;51.47;99957.44;4963222;28;61765;-78
2022/03/30 09:38:08;;;;;;;;;75.50;53.25;;;;;20.42;51.37;99964.50;4962426;28;61937;-76
2022/03/30 09:40:47;;;;;;;;;67.00;49.75;;;;;20.46;50.69;99957.38;4962021;28;63852;-76
2022/03/30 09:43:34;;;;;;;;;72.00;52.50;;;;;20.46;50.60;99959.13;4977292;28;62090;-76
2022/03/30 09:46:02;;;;;;;;;62.50;49.75;;;;;20.61;51.19;99964.38;4961112;28;61882;-76
2022/03/30 09:48:29;;;;;;;;;73.50;53.50;;;;;20.72;50.80;99948.28;4961389;28;62071;-76
2022/03/30 09:50:56;;;;;;;;;69.75;50.75;;;;;20.93;50.80;99953.38;4961673;28;62530;-77
2022/03/30 09:53:28;;;;;;;;;73.00;54.00;;;;;21.04;49.97;99953.25;4944997;28;61981;-76
2022/03/30 09:55:58;;;;;;;;;71.00;52.00;;;;;21.16;50.28;99949.53;4962099;28;61989;-76
2022/03/30 09:58:27;;;;;;;;;69.25;48.75;;;;;21.27;49.57;99949.38;4962307;28;61770;-76
2022/03/30 10:01:12;;;;;;;;;66.25;49.00;;;;;21.32;49.21;99948.44;4960952;28;62753;-80
2022/03/30 10:03:45;;;;;;;;;66.25;52.00;;;;;21.24;48.60;99948.53;4963142;28;61844;-78
2022/03/30 10:06:13;;;;;;;;;73.25;52.75;;;;;21.28;49.68;99946.72;4961628;28;62125;-78
2022/03/30 10:08:43;;;;;;;;;67.25;48.00;;;;;21.30;49.49;99947.56;4963047;28;62018;-80
2022/03/30 10:11:10;;;;;;;;;75.00;55.00;;;;;21.37;49.76;99940.38;4972237;28;65040;-78
2022/03/30 10:13:37;;;;;;;;;71.25;54.00;;;;;21.31;48.49;99949.31;4961877;28;61785;-79
2022/03/30 10:16:08;;;;;;;;;64.75;49.50;;;;;21.39;48.22;99936.75;4962278;28;61711;-79
2022/03/30 10:18:35;;;;;;;;;67.50;52.00;;;;;21.41;47.77;99942.09;4962879;28;61812;-79
2022/03/30 10:21:25;;;;;;;;;73.25;50.50;;;;;21.54;47.75;99938.38;4963035;28;62923;-78
2022/03/30 10:24:05;;;;;;;;;72.00;53.50;;;;;21.71;47.46;99943.47;4978803;28;61947;-79
2022/03/30 10:26:37;;;;;;;;;67.25;51.00;;;;;21.73;46.35;99932.78;4964275;28;62013;-79
2022/03/30 10:29:09;;;;;;;;;66.25;49.00;;;;;21.70;47.00;99936.38;4964317;28;61964;-80
2022/03/30 10:31:35;;;;;;;;;71.75;54.25;;;;;21.64;46.75;99939.13;4944574;28;63756;-78
2022/03/30 10:34:26;;;;;;;;;68.25;51.00;;;;;21.62;47.86;99930.25;4963629;28;61839;-79
2022/03/30 10:37:25;;;;;;;;;69.75;56.00;;;;;21.86;47.28;99937.03;4963065;28;61912;-79
2022/03/30 10:40:04;;;;;;;;;70.75;48.75;;;;;21.98;46.32;99923.47;4963293;28;61904;-78
2022/03/30 10:42:53;;;;;;;;;63.50;48.25;;;;;22.17;46.70;99932.06;4961182;28;61799;-80
2022/03/30 10:45:23;;;;;;;;;71.50;52.75;;;;;22.36;46.56;99921.06;4962298;28;61905;-80
2022/03/30 10:48:09;;;;;;;;;62.25;47.25;;;;;22.46;45.96;99915.53;4962715;28;62030;-80
2022/03/30 10:50:36;;;;;;;;;69.00;48.00;;;;;22.49;45.04;99916.38;4945500;28;61890;-78
2022/03/30 10:53:02;;;;;;;;;71.25;51.50;;;;;22.60;45.26;99906.34;4962426;28;61873;-77
2022/03/30 10:55:30;;;;;;;;;68.50;51.75;;;;;22.69;45.26;99891.91;4962487;28;62008;-77
2022/03/30 10:58:01;;;;;;;;;67.75;49.50;;;;;22.75;44.55;99900.72;4961755;28;61833;-77
2022/03/30 11:00:39;;;;;;;;;69.75;51.75;;;;;22.79;45.13;99896.19;4961648;28;62080;-77
2022/03/30 11:03:17;;;;;;;;;66.00;49.75;;;;;22.83;44.35;99900.56;4960498;28;62866;-76
2022/03/30 11:05:59;;;;;;;;;63.25;46.50;;;;;22.79;44.59;99894.38;4956410;28;62015;-77
2022/03/30 11:08:55;;;;;;;;;59.75;45.25;;;;;23.02;44.52;99890.41;4959742;28;61900;-77
2022/03/30 11:11:40;;;;;;;;;57.25;44.75;;;;;23.31;43.49;99892.44;4958385;28;62921;-79
2022/03/30 11:14:24;;;;;;;;;54.75;44.50;;;;;23.60;43.55;99885.53;4960153;28;61937;-77
2022/03/30 11:16:54;;;;;;;;;53.25;43.00;;;;;23.74;42.27;99880.75;4960211;28;62088;-77
2022/03/30 11:19:26;;;;;;;;;57.50;47.00;;;;;23.92;42.46;99886.59;4944020;28;61746;-78
2022/03/30 11:22:09;;;;;;;;;54.75;41.50;;;;;24.16;41.93;99885.06;4976168;28;61922;-78
2022/03/30 11:24:35;;;;;;;;;47.50;40.25;;;;;24.27;40.81;99869.56;4972960;28;63707;-78
2022/03/30 11:27:01;;;;;;;;;62.75;46.25;;;;;24.32;39.60;99870.34;4960833;28;61967;-78
2022/03/30 11:29:42;;;;;;;;;57.25;43.50;;;;;24.32;40.07;99869.47;4959061;28;62039;-78
2022/03/30 11:32:23;;;;;;;;;53.50;42.00;;;;;24.36;40.68;99861.31;4958349;28;61991;-77
2022/03/30 11:34:59;;;;;;;;;53.75;41.25;;;;;24.55;39.22;99863.50;4959913;28;62946;-78
2022/03/30 11:37:29;;;;;;;;;57.75;42.75;;;;;24.77;38.89;99853.94;4959315;28;62040;-78
2022/03/30 11:40:08;;;;;;;;;60.50;46.75;;;;;24.98;38.58;99854.19;4943290;28;61868;-78
2022/03/30 11:42:36;;;;;;;;;51.25;43.00;;;;;25.18;40.39;99850.94;4944638;28;61920;-78
2022/03/30 11:45:13;;;;;;;;;51.75;41.25;;;;;25.36;37.27;99844.13;4959208;28;63856;-78
2022/03/30 11:48:10;;;;;;;;;47.25;38.25;;;;;25.62;37.66;99841.50;4960105;28;61778;-78
2022/03/30 11:50:50;;;;;;;;;53.75;42.50;;;;;25.62;37.18;99841.50;4959090;28;61928;-78
2022/03/30 11:53:21;;;;;;;;;58.75;43.50;;;;;25.77;37.43;99849.97;4961235;28;61988;-78
2022/03/30 11:55:49;;;;;;;;;50.25;37.50;;;;;25.85;37.35;99839.84;4959698;28;63051;-78
2022/03/30 11:58:30;;;;;;;;;51.50;40.25;;;;;26.20;36.11;99841.38;4960130;28;61971;-78
2022/03/30 12:00:57;;;;;;;;;50.50;42.00;;;;;26.41;36.52;99828.06;4960308;28;61816;-77
2022/03/30 12:03:24;;;;;;;;;50.75;39.75;;;;;26.68;35.94;99832.47;4975350;28;61899;-75
2022/03/30 12:05:55;;;;;;;;;53.00;40.50;;;;;26.73;35.42;99826.91;4960267;28;62746;-76
2022/03/30 12:08:21;;;;;;;;;55.25;42.00;;;;;26.76;35.69;99824.13;4956904;28;61816;-76
2022/03/30 12:10:48;;;;;;;;;56.00;45.00;;;;;26.77;36.46;99824.97;4959952;28;62058;-77
2022/03/30 12:13:22;;;;;;;;;60.25;47.25;;;;;26.78;36.08;99818.66;4943202;28;62068;-77
2022/03/30 12:15:58;;;;;;;;;56.50;42.00;;;;;26.58;35.41;99820.28;4942525;28;63262;-76
2022/03/30 12:18:24;;;;;;;;;59.25;45.25;;;;;26.19;34.34;99823.44;4959053;28;62150;-77
2022/03/30 12:20:50;;;;;;;;;56.00;44.50;;;;;25.78;35.22;99816.78;4960053;28;61996;-77
2022/03/30 12:23:15;;;;;;;;;54.75;42.25;;;;;25.60;36.22;99807.50;4960340;28;61952;-77
2022/03/30 12:25:41;;;;;;;;;55.50;42.50;;;;;25.47;36.42;99815.09;4960676;28;62046;-80
2022/03/30 12:28:07;;;;;;;;;47.25;40.25;;;;;25.52;36.14;99817.66;4962781;28;62372;-76
2022/03/30 12:30:36;;;;;;;;;50.75;40.00;;;;;25.54;35.99;99814.00;4963377;28;61982;-77
2022/03/30 12:33:02;;;;;;;;;47.25;40.00;;;;;25.53;35.72;99808.66;4964593;28;61792;-77
2022/03/30 12:35:37;;;;;;;;;49.50;38.25;;;;;25.55;36.21;99809.50;4964476;28;61983;-77
2022/03/30 12:38:09;;;;;;;;;47.00;39.00;;;;;25.58;34.84;99802.22;4964517;28;62014;-77
2022/03/30 12:40:38;;;;;;;;;54.50;41.00;;;;;25.62;35.18;99801.19;4966850;28;62198;-77
2022/03/30 12:43:04;;;;;;;;;52.00;41.00;;;;;25.56;35.31;99801.38;4964536;28;61833;-77
2022/03/30 12:45:29;;;;;;;;;48.50;37.75;;;;;25.41;35.17;99794.69;4964632;28;62518;-77
2022/03/30 12:47:59;;;;;;;;;52.50;40.25;;;;;25.48;35.57;99790.00;4947294;28;61889;-77
2022/03/30 12:50:31;;;;;;;;;44.50;36.75;;;;;25.56;35.96;99789.72;4965271;28;61932;-77
2022/03/30 12:53:15;;;;;;;;;53.25;41.25;;;;;25.56;34.79;99784.34;4964600;28;61852;-77
2022/03/30 12:55:48;;;;;;;;;56.75;42.50;;;;;25.41;35.23;99786.66;4963919;28;61991;-77
2022/03/30 12:58:19;;;;;;;;;44.50;35.25;;;;;25.37;36.01;99784.97;4979573;28;62084;-77
2022/03/30 13:00:50;;;;;;;;;44.25;35.75;;;;;25.44;34.56;99781.16;4979705;28;61850;-77
2022/03/30 13:03:20;;;;;;;;;49.75;37.75;;;;;25.26;34.97;99777.28;4964798;28;62156;-77
2022/03/30 13:06:00;;;;;;;;;52.25;41.00;;;;;25.22;36.18;99780.13;4964266;28;61907;-77
2022/03/30 13:08:26;;;;;;;;;48.25;37.25;;;;;25.31;36.12;99779.81;4947049;28;61915;-77
2022/03/30 13:10:51;;;;;;;;;43.00;37.00;;;;;25.42;35.88;99764.22;4964147;28;61900;-77
2022/03/30 13:13:20;;;;;;;;;52.25;40.00;;;;;25.52;35.56;99764.78;4963222;28;62212;-77
2022/03/30 13:15:46;;;;;;;;;53.00;38.25;;;;;25.55;35.90;99753.94;4978931;28;65064;-77
2022/03/30 13:18:17;;;;;;;;;44.75;35.50;;;;;25.46;35.03;99754.25;4962929;28;61774;-77
2022/03/30 13:20:53;;;;;;;;;40.50;33.25;;;;;25.30;34.69;99748.47;4964583;28;61760;-77
2022/03/30 13:23:18;;;;;;;;;47.25;33.75;;;;;25.22;33.69;99745.19;4964269;28;61865;-77
2022/03/30 13:25:44;;;;;;;;;52.75;35.75;;;;;25.05;34.48;99733.16;4963203;28;62907;-77
2022/03/30 13:28:25;;;;;;;;;46.50;37.25;;;;;24.98;35.26;99730.69;4962994;28;61893;-77
2022/03/30 13:30:51;;;;;;;;;47.50;35.25;;;;;24.99;35.82;99724.41;4964679;28;61697;-77